createdAt,value
2023-08-22T00:00:45.783Z,12.02
2023-08-22T00:03:51.400Z,10.85
2023-08-22T00:07:01.465Z,10.55
2023-08-22T00:10:07.618Z,8.98
2023-08-22T00:13:15.828Z,8.35
2023-08-22T00:16:21.278Z,9.52
2023-08-22T00:19:30.601Z,10.80
2023-08-22T00:22:39.388Z,13.13
2023-08-22T00:25:46.969Z,11.18
2023-08-22T00:28:52.374Z,13.80
2023-08-22T00:32:01.797Z,10.23
2023-08-22T00:35:15.922Z,11.45
2023-08-22T00:38:27.028Z,9.35
2023-08-22T00:41:32.406Z,11.43
2023-08-22T00:44:39.813Z,9.82
2023-08-22T00:47:45.292Z,8.32
2023-08-22T00:50:52.703Z,8.30
2023-08-22T00:54:01.312Z,7.03
2023-08-22T00:57:08.999Z,7.60
2023-08-22T01:00:15.173Z,7.63
2023-08-22T01:03:22.576Z,9.57
2023-08-22T01:06:36.722Z,8.13
2023-08-22T01:09:52.615Z,10.55
2023-08-22T01:13:05.661Z,13.93
2023-08-22T01:16:13.961Z,11.02
2023-08-22T01:19:21.587Z,9.55
2023-08-22T01:22:31.580Z,7.68
2023-08-22T01:25:38.284Z,7.95
2023-08-22T01:28:49.906Z,10.70
2023-08-22T01:32:00.896Z,10.85
2023-08-22T01:35:10.728Z,11.25
2023-08-22T01:38:19.816Z,7.45
2023-08-22T01:41:27.986Z,7.60
2023-08-22T01:44:33.298Z,9.18
2023-08-22T01:47:40.856Z,12.63
2023-08-22T01:50:46.455Z,7.70
2023-08-22T01:53:56.379Z,14.88
2023-08-22T01:57:01.646Z,10.38
2023-08-22T02:00:11.795Z,11.85
2023-08-22T02:03:20.300Z,15.50
2023-08-22T02:06:27.701Z,10.88
2023-08-22T02:09:36.474Z,10.60
2023-08-22T02:12:43.890Z,11.90
2023-08-22T02:15:49.656Z,10.05
2023-08-22T02:18:57.908Z,10.70
2023-08-22T02:22:05.639Z,10.80
2023-08-22T02:25:16.128Z,14.52
2023-08-22T02:28:21.458Z,13.73
2023-08-22T02:31:29.017Z,11.95
2023-08-22T02:34:34.340Z,19.42
2023-08-22T02:37:41.883Z,14.57
2023-08-22T02:40:50.358Z,13.35
2023-08-22T02:43:57.666Z,11.43
2023-08-22T02:47:03.697Z,14.80
2023-08-22T02:50:12.073Z,11.57
2023-08-22T02:53:17.410Z,17.15
2023-08-22T02:56:29.059Z,13.20
2023-08-22T02:59:34.634Z,13.18
2023-08-22T03:02:43.312Z,14.65
2023-08-22T03:05:49.114Z,13.25
2023-08-22T03:08:56.457Z,14.73
2023-08-22T03:12:04.660Z,22.42
2023-08-22T03:15:13.084Z,12.75
2023-08-22T03:18:20.511Z,20.23
2023-08-22T03:21:28.389Z,16.23
2023-08-22T03:24:34.536Z,13.55
2023-08-22T03:27:45.336Z,10.77
2023-08-22T03:30:50.839Z,10.43
2023-08-22T03:33:58.520Z,7.80
2023-08-22T03:37:04.159Z,9.55
2023-08-22T03:40:12.990Z,9.40
2023-08-22T03:43:22.792Z,7.78
2023-08-22T03:46:38.201Z,12.48
2023-08-22T03:49:48.142Z,10.77
2023-08-22T03:52:55.468Z,9.05
2023-08-22T03:56:02.031Z,8.88
2023-08-22T03:59:15.387Z,9.80
2023-08-22T04:02:20.920Z,16.10
2023-08-22T04:05:28.838Z,10.05
2023-08-22T04:08:34.169Z,11.13
2023-08-22T04:11:42.155Z,13.35
2023-08-22T04:14:50.125Z,8.57
2023-08-22T04:17:57.441Z,9.10
2023-08-22T04:21:02.791Z,15.98
2023-08-22T04:24:11.225Z,13.40
2023-08-22T04:27:17.275Z,10.70
2023-08-22T04:30:27.783Z,18.98
2023-08-22T04:33:34.204Z,12.70
2023-08-22T04:36:41.598Z,8.77
2023-08-22T04:39:47.176Z,10.32
2023-08-22T04:43:29.840Z,9.05
2023-08-22T04:46:38.850Z,10.43
2023-08-22T04:49:47.313Z,11.60
2023-08-22T04:52:52.986Z,14.73
2023-08-22T04:56:00.269Z,13.10
2023-08-22T04:59:07.666Z,10.98
2023-08-22T05:02:17.948Z,8.88
2023-08-22T05:05:23.416Z,13.20
2023-08-22T05:08:30.724Z,6.60
2023-08-22T05:11:36.343Z,15.82
2023-08-22T05:14:44.801Z,10.73
2023-08-22T05:17:52.852Z,13.23
2023-08-22T05:21:00.424Z,11.93
2023-08-22T05:24:06.825Z,17.15
2023-08-22T05:27:15.144Z,13.93
2023-08-22T05:30:20.662Z,11.85
2023-08-22T05:33:30.634Z,15.73
2023-08-22T05:36:35.966Z,11.93
2023-08-22T05:39:43.971Z,15.98
2023-08-22T05:42:49.388Z,15.32
2023-08-22T05:45:56.753Z,16.95
2023-08-22T05:49:04.788Z,16.25
2023-08-22T05:52:12.128Z,10.35
2023-08-22T05:55:17.641Z,17.08
2023-08-22T05:58:26.212Z,15.85
2023-08-22T06:01:33.132Z,20.10
2023-08-22T06:04:44.768Z,16.40
2023-08-22T06:07:50.225Z,20.10
2023-08-22T06:10:58.131Z,23.80
2023-08-22T06:14:04.107Z,19.80
2023-08-22T06:17:11.653Z,16.67
2023-08-22T06:20:19.965Z,19.23
2023-08-22T06:23:27.517Z,15.30
2023-08-22T06:26:35.295Z,15.23
2023-08-22T06:29:42.596Z,24.90
2023-08-22T06:32:47.895Z,17.45
2023-08-22T06:35:57.886Z,20.50
2023-08-22T06:39:11.414Z,15.70
2023-08-22T06:42:18.884Z,19.83
2023-08-22T06:45:28.771Z,17.67
2023-08-22T06:48:42.089Z,23.85
2023-08-22T06:51:53.126Z,16.80
2023-08-22T06:55:02.201Z,18.88
2023-08-22T06:58:11.296Z,16.15
2023-08-22T07:01:20.641Z,16.70
2023-08-22T07:04:30.825Z,15.98
2023-08-22T07:07:43.107Z,12.93
2023-08-22T07:10:49.311Z,19.38
2023-08-22T07:14:00.391Z,19.10
2023-08-22T07:17:09.094Z,15.40
2023-08-22T07:20:18.886Z,18.83
2023-08-22T07:23:26.935Z,20.23
2023-08-22T07:26:34.218Z,17.15
2023-08-22T07:29:39.512Z,14.48
2023-08-22T07:32:46.810Z,16.45
2023-08-22T07:35:52.146Z,15.20
2023-08-22T07:39:02.424Z,13.40
2023-08-22T07:42:07.922Z,16.48
2023-08-22T07:45:15.262Z,14.65
2023-08-22T07:48:20.646Z,14.25
2023-08-22T07:51:27.980Z,8.88
2023-08-22T07:54:36.049Z,10.77
2023-08-22T07:57:43.314Z,12.70
2023-08-22T08:00:50.954Z,18.45
2023-08-22T08:03:59.200Z,8.55
2023-08-22T08:07:04.825Z,9.25
2023-08-22T08:10:15.226Z,14.05
2023-08-22T08:13:20.583Z,7.40
2023-08-22T08:19:40.931Z,12.18
2023-08-22T08:22:48.260Z,6.05
2023-08-22T08:25:56.188Z,5.85
2023-08-22T08:29:03.821Z,4.03
2023-08-22T08:32:09.225Z,2.97
2023-08-22T08:35:16.886Z,5.35
2023-08-22T08:38:22.226Z,5.25
2023-08-22T08:41:37.005Z,4.05
2023-08-22T08:44:43.165Z,2.95
2023-08-22T08:47:51.043Z,2.92
2023-08-22T08:50:57.395Z,3.33
2023-08-22T08:54:06.059Z,3.40
2023-08-22T08:57:14.150Z,5.20
2023-08-22T09:00:22.139Z,2.08
2023-08-22T09:03:27.537Z,5.13
2023-08-22T09:06:34.877Z,5.25
2023-08-22T09:09:40.469Z,5.75
2023-08-22T09:12:50.582Z,5.55
2023-08-22T09:16:01.112Z,5.75
2023-08-22T09:19:08.720Z,4.25
2023-08-22T09:22:17.254Z,5.70
2023-08-22T09:25:24.556Z,7.80
2023-08-22T09:28:34.636Z,3.25
2023-08-22T09:31:40.194Z,6.97
2023-08-22T09:34:56.955Z,6.57
2023-08-22T09:38:11.429Z,5.70
2023-08-22T09:41:30.147Z,7.25
2023-08-22T09:44:42.751Z,8.77
2023-08-22T09:47:54.561Z,6.53
2023-08-22T09:51:03.750Z,4.88
2023-08-22T09:54:11.377Z,7.55
2023-08-22T09:57:17.177Z,6.72
2023-08-22T10:00:31.975Z,8.93
2023-08-22T10:03:40.740Z,9.77
2023-08-22T10:06:54.511Z,6.70
2023-08-22T10:10:00.841Z,5.75
2023-08-22T10:13:10.469Z,6.32
2023-08-22T10:16:22.210Z,4.78
2023-08-22T10:19:30.664Z,8.43
2023-08-22T10:22:38.529Z,4.95
2023-08-22T10:25:53.340Z,8.15
2023-08-22T10:29:17.100Z,8.15
2023-08-22T10:32:32.814Z,7.55
2023-08-22T10:35:38.526Z,5.28
2023-08-22T10:38:55.603Z,7.68
2023-08-22T10:42:01.053Z,14.15
2023-08-22T10:45:20.866Z,7.30
2023-08-22T10:48:28.755Z,9.00
2023-08-22T10:51:47.035Z,11.30
2023-08-22T10:55:11.172Z,6.53
2023-08-22T10:58:37.238Z,7.53
2023-08-22T11:01:42.608Z,5.65
2023-08-22T11:04:53.374Z,12.43
2023-08-22T11:07:58.776Z,9.38
2023-08-22T11:11:06.602Z,6.15
2023-08-22T11:14:11.864Z,7.65
2023-08-22T11:17:19.917Z,7.25
2023-08-22T11:20:27.864Z,5.93
2023-08-22T11:23:36.320Z,5.75
2023-08-22T11:26:41.544Z,8.07
2023-08-22T11:29:51.129Z,5.53
2023-08-22T11:32:56.433Z,7.30
2023-08-22T11:36:07.263Z,10.20
2023-08-22T11:39:12.692Z,6.20
2023-08-22T11:42:20.731Z,6.18
2023-08-22T11:45:26.741Z,6.00
2023-08-22T11:48:34.089Z,8.82
2023-08-22T11:51:41.944Z,4.30
2023-08-22T11:54:49.779Z,6.18
2023-08-22T11:57:57.533Z,3.58
2023-08-22T12:01:05.729Z,3.60
2023-08-22T12:04:11.153Z,10.75
2023-08-22T12:07:21.165Z,5.38
2023-08-22T12:10:26.457Z,6.90
2023-08-22T12:13:33.805Z,6.07
2023-08-22T12:16:54.089Z,5.18
2023-08-22T12:20:02.032Z,3.80
2023-08-22T12:23:10.938Z,3.75
2023-08-22T12:26:18.328Z,4.80
2023-08-22T12:29:23.593Z,7.10
2023-08-22T12:32:32.621Z,4.45
2023-08-22T12:35:41.559Z,3.40
2023-08-22T12:38:51.497Z,6.18
2023-08-22T12:41:56.797Z,7.38
2023-08-22T12:45:04.520Z,3.30
2023-08-22T12:48:10.270Z,4.30
2023-08-22T12:51:17.564Z,8.55
2023-08-22T12:54:25.446Z,3.58
2023-08-22T12:57:32.767Z,2.65
2023-08-22T13:00:39.801Z,3.45
2023-08-22T13:03:47.683Z,2.28
2023-08-22T13:06:53.118Z,1.70
2023-08-22T13:10:05.353Z,5.22
2023-08-22T13:13:13.948Z,3.88
2023-08-22T13:16:22.060Z,4.20
2023-08-22T13:19:29.090Z,1.13
2023-08-22T13:22:36.430Z,0.30
2023-08-22T13:25:44.719Z,2.22
2023-08-22T13:28:52.607Z,0.93
2023-08-22T13:31:57.937Z,2.80
2023-08-22T13:35:05.388Z,2.72
2023-08-22T13:38:10.733Z,3.47
2023-08-22T13:41:23.162Z,2.08
2023-08-22T13:44:28.488Z,3.78
2023-08-22T13:47:36.018Z,0.88
2023-08-22T13:50:42.970Z,1.65
2023-08-22T13:53:50.360Z,0.55
2023-08-22T13:56:58.217Z,2.50
2023-08-22T14:00:05.685Z,3.03
2023-08-22T14:03:11.061Z,1.48
2023-08-22T14:06:18.513Z,3.13
2023-08-22T14:09:26.797Z,2.78
2023-08-22T14:12:37.146Z,5.13
2023-08-22T14:15:42.575Z,4.80
2023-08-22T14:18:49.961Z,3.60
2023-08-22T14:21:56.405Z,4.45
2023-08-22T14:25:04.572Z,5.55
2023-08-22T14:28:12.529Z,24.38
2023-08-22T14:31:20.009Z,2.97
2023-08-22T14:34:25.413Z,3.60
2023-08-22T14:37:34.260Z,3.40
2023-08-22T14:40:39.596Z,2.55
2023-08-22T14:43:49.656Z,3.50
2023-08-22T14:46:55.043Z,3.63
2023-08-22T14:50:02.520Z,7.60
2023-08-22T14:53:08.168Z,2.50
2023-08-22T14:56:15.581Z,2.83
2023-08-22T14:59:24.607Z,2.42
2023-08-22T15:02:31.919Z,1.75
2023-08-22T15:05:41.262Z,6.20
2023-08-22T15:08:48.711Z,5.30
2023-08-22T15:11:53.965Z,4.00
2023-08-22T15:15:04.546Z,2.25
2023-08-22T15:18:10.193Z,3.17
2023-08-22T15:21:17.578Z,1.60
2023-08-22T15:24:22.925Z,3.25
2023-08-22T15:27:33.087Z,3.97
2023-08-22T15:30:41.096Z,2.40
2023-08-22T15:33:48.460Z,2.60
2023-08-22T15:36:54.748Z,2.03
2023-08-22T15:40:05.677Z,3.80
2023-08-22T15:43:10.985Z,2.28
2023-08-22T15:46:20.911Z,6.80
2023-08-22T15:49:26.295Z,2.50
2023-08-22T15:52:40.924Z,2.45
2023-08-22T15:55:47.397Z,1.55
2023-08-22T15:58:54.730Z,2.45
2023-08-22T16:02:02.661Z,2.63
2023-08-22T16:05:10.842Z,3.75
2023-08-22T16:08:16.241Z,4.47
2023-08-22T16:11:23.589Z,3.70
2023-08-22T16:14:29.045Z,3.28
2023-08-22T16:17:39.396Z,2.22
2023-08-22T16:20:45.884Z,3.42
2023-08-22T16:23:53.822Z,9.52
2023-08-22T16:26:59.473Z,5.63
2023-08-22T16:30:08.364Z,2.53
2023-08-22T16:33:16.403Z,9.23
2023-08-22T16:36:24.347Z,5.47
2023-08-22T16:39:29.615Z,8.13
2023-08-22T16:42:37.050Z,5.97
2023-08-22T16:45:45.989Z,2.92
2023-08-22T16:48:56.336Z,6.13
2023-08-22T16:52:01.951Z,4.40
2023-08-22T16:55:11.824Z,2.80
2023-08-22T16:58:17.849Z,2.78
2023-08-22T17:01:28.341Z,3.92
2023-08-22T17:04:36.524Z,4.78
2023-08-22T17:07:44.381Z,7.25
2023-08-22T17:10:50.412Z,4.45
2023-08-22T17:13:58.083Z,5.50
2023-08-22T17:17:03.475Z,3.63
2023-08-22T17:20:15.360Z,3.50
2023-08-22T17:23:20.679Z,2.92
2023-08-22T17:26:27.951Z,6.82
2023-08-22T17:29:33.295Z,2.60
2023-08-22T17:32:40.678Z,4.95
2023-08-22T17:35:48.650Z,1.90
2023-08-22T17:38:56.058Z,5.80
2023-08-22T17:42:01.325Z,5.13
2023-08-22T17:45:09.858Z,9.88
2023-08-22T17:48:15.147Z,9.07
2023-08-22T17:51:25.130Z,3.88
2023-08-22T17:54:30.467Z,6.30
2023-08-22T17:57:37.987Z,5.72
2023-08-22T18:00:43.626Z,8.13
2023-08-22T18:03:52.600Z,4.00
2023-08-22T18:07:00.752Z,3.28
2023-08-22T18:10:09.587Z,3.88
2023-08-22T18:13:15.169Z,5.65
2023-08-22T18:16:22.729Z,6.85
2023-08-22T18:19:28.302Z,3.20
2023-08-22T18:22:38.852Z,4.63
2023-08-22T18:25:44.130Z,4.32
2023-08-22T18:28:51.424Z,4.53
2023-08-22T18:31:56.856Z,5.72
2023-08-22T18:35:04.217Z,3.38
2023-08-22T18:38:15.550Z,5.85
2023-08-22T18:41:25.078Z,3.70
2023-08-22T18:44:30.514Z,3.58
2023-08-22T18:47:37.898Z,7.85
2023-08-22T18:50:44.088Z,2.80
2023-08-22T18:53:54.807Z,3.15
2023-08-22T18:57:00.148Z,2.47
2023-08-22T19:00:16.022Z,4.63
2023-08-22T19:03:21.755Z,5.28
2023-08-22T19:06:29.208Z,5.78
2023-08-22T19:09:37.041Z,5.50
2023-08-22T19:12:44.375Z,5.80
2023-08-22T19:15:51.075Z,10.60
2023-08-22T19:18:58.826Z,4.75
2023-08-22T19:22:04.065Z,7.28
2023-08-22T19:25:14.373Z,11.23
2023-08-22T19:28:19.714Z,6.35
2023-08-22T19:31:27.374Z,6.07
2023-08-22T19:34:33.208Z,7.32
2023-08-22T19:37:40.572Z,9.55
2023-08-22T19:40:49.925Z,6.35
2023-08-22T19:43:57.302Z,11.75
2023-08-22T19:47:02.723Z,13.55
2023-08-22T19:50:11.233Z,6.72
2023-08-22T19:53:17.397Z,10.27
2023-08-22T19:56:27.674Z,15.00
2023-08-22T19:59:33.033Z,10.40
2023-08-22T20:02:40.686Z,18.67
2023-08-22T20:05:48.320Z,9.25
2023-08-22T20:08:56.188Z,8.20
2023-08-22T20:12:04.106Z,10.75
2023-08-22T20:15:12.155Z,7.82
2023-08-22T20:18:17.553Z,9.02
2023-08-22T20:21:25.520Z,10.25
2023-08-22T20:24:30.869Z,11.77
2023-08-22T20:27:40.969Z,12.05
2023-08-22T20:30:53.687Z,8.55
2023-08-22T20:34:01.715Z,9.38
2023-08-22T20:37:07.617Z,14.45
2023-08-22T20:40:15.325Z,12.43
2023-08-22T20:43:23.256Z,13.52
2023-08-22T20:46:30.799Z,7.05
2023-08-22T20:49:36.065Z,7.82
2023-08-22T20:52:43.485Z,12.43
2023-08-22T20:55:52.887Z,9.45
2023-08-22T20:59:02.821Z,12.20
2023-08-22T21:02:08.746Z,10.43
2023-08-22T21:05:17.922Z,10.43
2023-08-22T21:08:23.350Z,10.13
2023-08-22T21:11:30.764Z,9.13
2023-08-22T21:14:38.668Z,8.45
2023-08-22T21:17:46.750Z,9.25
2023-08-22T21:20:55.566Z,10.13
2023-08-22T21:24:03.039Z,12.80
2023-08-22T21:27:08.791Z,10.90
2023-08-22T21:30:21.261Z,7.88
2023-08-22T21:33:26.894Z,9.15
2023-08-22T21:36:34.332Z,10.18
2023-08-22T21:39:40.010Z,14.63
2023-08-22T21:42:47.656Z,10.23
2023-08-22T21:45:58.369Z,9.68
2023-08-22T21:49:05.807Z,10.40
2023-08-22T21:52:13.009Z,8.18
2023-08-22T21:55:22.573Z,10.23
2023-08-22T21:58:27.793Z,8.85
2023-08-22T22:01:37.657Z,9.50
2023-08-22T22:04:43.494Z,8.00
2023-08-22T22:07:50.803Z,5.95
2023-08-22T22:10:56.179Z,9.00
2023-08-22T22:14:03.589Z,9.27
2023-08-22T22:17:13.444Z,7.85
2023-08-22T22:20:18.879Z,11.32
2023-08-22T22:23:26.739Z,10.57
2023-08-22T22:26:33.371Z,10.68
2023-08-22T22:29:40.666Z,9.40
2023-08-22T22:32:48.572Z,11.30
2023-08-22T22:35:56.122Z,8.88
2023-08-22T22:39:01.780Z,7.60
2023-08-22T22:42:09.686Z,12.15
2023-08-22T22:45:15.016Z,9.52
2023-08-22T22:48:25.653Z,8.30
2023-08-22T22:51:31.066Z,8.65
2023-08-22T22:54:39.841Z,10.38
2023-08-22T22:57:45.583Z,12.00
2023-08-22T23:00:53.148Z,15.57
2023-08-22T23:04:01.134Z,12.65
2023-08-22T23:07:08.866Z,7.93
2023-08-22T23:10:14.557Z,11.35
2023-08-22T23:13:22.202Z,7.00
2023-08-22T23:16:27.605Z,11.48
2023-08-22T23:19:38.661Z,11.93
2023-08-22T23:22:45.971Z,11.63
2023-08-22T23:25:54.101Z,10.13
2023-08-22T23:28:59.323Z,8.68
2023-08-22T23:32:06.894Z,11.57
2023-08-22T23:35:15.564Z,9.20
2023-08-22T23:38:22.916Z,11.52
2023-08-22T23:41:31.025Z,10.73
2023-08-22T23:44:38.447Z,9.38
2023-08-22T23:47:43.791Z,9.32
2023-08-22T23:50:56.052Z,9.90
2023-08-22T23:54:06.098Z,8.35
2023-08-22T23:57:13.358Z,9.70
